Time;durP1;ratioP1;P1;durP2;ratioP2;P2;SDS_P1;SDS_P2;PMS_P1;PMS_P2;Temp;Humidity;BMP_temperature;BMP_pressure;BME280_temperature;BME280_humidity;BME280_pressure;Samples;Min_cycle;Max_cycle;Signal;HPM_P1;HPM_P2
2023/09/27 00:01:59;;;;;;;0.10;0.10;;;;;;;15.27;100.00;99538.94;5137504;27;20243;-57
2023/09/27 00:04:45;;;;;;;0.20;0.20;;;;;;;15.20;100.00;99537.72;5137240;27;20197;-57
2023/09/27 00:07:34;;;;;;;0.10;0.10;;;;;;;15.11;100.00;99541.94;5121598;27;20270;-57
2023/09/27 00:10:21;;;;;;;0.10;0.10;;;;;;;14.98;100.00;99544.69;5137318;27;20238;-57
2023/09/27 00:13:09;;;;;;;0.10;0.10;;;;;;;14.83;100.00;99537.84;5136861;27;20720;-57
2023/09/27 00:15:55;;;;;;;0.10;0.10;;;;;;;14.84;100.00;99545.72;5137075;27;20278;-57
2023/09/27 00:18:43;;;;;;;0.10;0.10;;;;;;;14.52;100.00;99544.63;5137055;27;20236;-57
2023/09/27 00:21:30;;;;;;;0.10;0.10;;;;;;;14.63;100.00;99541.16;5137020;27;20676;-57
2023/09/27 00:24:18;;;;;;;0.10;0.10;;;;;;;14.40;100.00;99551.69;5135341;27;20229;-57
2023/09/27 00:27:05;;;;;;;0.20;0.20;;;;;;;14.40;100.00;99556.16;5137076;27;20225;-57
2023/09/27 00:29:53;;;;;;;0.10;0.10;;;;;;;14.33;100.00;99559.25;5136967;27;20189;-57
2023/09/27 00:32:40;;;;;;;0.10;0.10;;;;;;;14.51;100.00;99559.75;5121147;27;20329;-57
2023/09/27 00:35:27;;;;;;;0.10;0.10;;;;;;;14.40;100.00;99550.81;5120003;27;20189;-57
2023/09/27 00:38:14;;;;;;;0.10;0.10;;;;;;;14.40;100.00;99551.69;5135456;27;20201;-57
2023/09/27 00:41:04;;;;;;;0.20;0.20;;;;;;;14.78;100.00;99548.00;5136617;27;20216;-57
2023/09/27 00:43:51;;;;;;;0.10;0.10;;;;;;;14.57;100.00;99550.44;5136466;27;20300;-57
2023/09/27 00:46:39;;;;;;;0.10;0.10;;;;;;;14.77;100.00;99555.16;5136560;27;20204;-57
2023/09/27 00:49:27;;;;;;;0.13;0.13;;;;;;;-144.59;100.00;83372.69;5136505;27;20193;-57
2023/09/27 00:52:14;;;;;;;0.10;0.10;;;;;;;14.37;100.00;99540.38;5136217;27;20221;-57
2023/09/27 00:55:01;;;;;;;0.10;0.10;;;;;;;14.20;100.00;99539.81;5135052;27;20201;-57
2023/09/27 00:57:51;;;;;;;0.10;0.10;;;;;;;14.11;100.00;99535.16;5136305;27;20193;-57
2023/09/27 01:00:39;;;;;;;0.10;0.10;;;;;;;14.11;100.00;99542.28;5136286;27;20255;-57
2023/09/27 01:03:25;;;;;;;0.10;0.10;;;;;;;14.35;100.00;99528.97;5136159;27;20327;-57
2023/09/27 01:06:12;;;;;;;0.10;0.10;;;;;;;14.31;100.00;99529.22;5136229;27;20315;-57
2023/09/27 01:08:59;;;;;;;0.20;0.20;;;;;;;14.17;100.00;99533.84;5134916;27;20371;-57
2023/09/27 01:11:47;;;;;;;0.10;0.10;;;;;;;14.09;100.00;99531.75;5136122;27;20209;-57
2023/09/27 01:14:36;;;;;;;0.10;0.10;;;;;;;13.92;100.00;99535.63;5136007;27;20275;-57
2023/09/27 01:17:23;;;;;;;0.10;0.10;;;;;;;14.16;100.00;99534.81;5136211;27;20194;-57
2023/09/27 01:20:12;;;;;;;0.10;0.10;;;;;;;13.93;100.00;99532.00;5120100;27;20196;-57
2023/09/27 01:23:01;;;;;;;0.10;0.10;;;;;;;14.04;100.00;99532.06;5134407;27;20233;-57
2023/09/27 01:25:57;;;;;;;0.20;0.20;;;;;;;14.15;100.00;99536.63;5120227;27;20198;-57
2023/09/27 01:28:45;;;;;;;0.20;0.20;;;;;;;13.79;100.00;99532.13;5135529;27;20189;-57
2023/09/27 01:31:32;;;;;;;0.10;0.10;;;;;;;13.75;100.00;99528.81;5135513;27;20299;-57
2023/09/27 01:34:19;;;;;;;0.10;0.10;;;;;;;13.75;100.00;99531.50;5135603;27;20189;-56
2023/09/27 01:37:08;;;;;;;0.10;0.10;;;;;;;13.76;100.00;99524.34;5119795;27;20189;-57
2023/09/27 01:39:58;;;;;;;0.10;0.10;;;;;;;13.62;100.00;99513.84;5118813;27;20208;-57
2023/09/27 01:42:44;;;;;;;0.20;0.20;;;;;;;13.53;100.00;99517.16;5119958;27;20813;-56
2023/09/27 01:45:32;;;;;;;0.10;0.10;;;;;;;13.90;100.00;99520.72;5135246;27;20316;-57
2023/09/27 01:48:19;;;;;;;0.10;0.10;;;;;;;13.91;100.00;99517.94;5135105;27;20197;-57
2023/09/27 01:51:06;;;;;;;0.20;0.20;;;;;;;13.92;100.00;99514.31;5135555;27;20195;-57
2023/09/27 01:53:53;;;;;;;0.10;0.10;;;;;;;13.80;100.00;99509.88;5133429;27;20378;-57
2023/09/27 01:56:41;;;;;;;0.10;0.10;;;;;;;13.61;100.00;99515.66;5135089;27;20261;-57
2023/09/27 01:59:29;;;;;;;0.10;0.10;;;;;;;13.67;100.00;99517.88;5119624;27;20219;-57
2023/09/27 02:02:16;;;;;;;0.10;0.10;;;;;;;13.75;100.00;99535.97;5119532;27;20231;-57
2023/09/27 02:05:04;;;;;;;0.10;0.10;;;;;;;13.58;100.00;99536.31;5135250;27;20198;-57
2023/09/27 02:07:52;;;;;;;0.10;0.10;;;;;;;13.69;100.00;99537.25;5133669;27;20190;-56
2023/09/27 02:10:39;;;;;;;0.10;0.10;;;;;;;13.77;100.00;99538.50;5134803;27;20198;-57
2023/09/27 02:13:28;;;;;;;0.10;0.10;;;;;;;13.48;100.00;99543.22;5134399;27;20689;-57
2023/09/27 02:16:14;;;;;;;0.10;0.10;;;;;;;13.31;100.00;99544.38;5134678;27;20235;-57
2023/09/27 02:19:04;;;;;;;0.10;0.10;;;;;;;13.48;100.00;99543.22;5134529;27;20278;-57
2023/09/27 02:21:52;;;;;;;0.10;0.10;;;;;;;13.46;100.00;99551.31;5134522;27;20680;-57
2023/09/27 02:24:38;;;;;;;0.10;0.10;;;;;;;13.57;100.00;99555.91;5117572;27;20221;-57
2023/09/27 02:27:25;;;;;;;0.10;0.10;;;;;;;13.34;100.00;99561.00;5119108;27;20295;-57
2023/09/27 02:30:14;;;;;;;0.10;0.10;;;;;;;13.28;100.00;99558.75;5134514;27;20247;-57
2023/09/27 02:33:02;;;;;;;0.10;0.10;;;;;;;13.33;100.00;99566.44;5134388;27;20213;-57
2023/09/27 02:35:49;;;;;;;0.10;0.10;;;;;;;13.24;100.00;99564.41;5134446;27;20201;-57
2023/09/27 02:38:37;;;;;;;0.10;0.10;;;;;;;13.16;100.00;99578.19;5133077;27;20276;-57
2023/09/27 02:41:24;;;;;;;0.10;0.10;;;;;;;13.38;100.00;99588.25;5134510;27;20197;-57
2023/09/27 02:44:11;;;;;;;0.20;0.20;;;;;;;13.60;100.00;99585.78;5134374;27;20194;-57
2023/09/27 02:47:00;;;;;;;0.10;0.10;;;;;;;13.49;100.00;99588.34;5118714;27;20271;-57
2023/09/27 02:49:46;;;;;;;0.10;0.10;;;;;;;13.80;100.00;99594.19;5134235;27;20311;-57
2023/09/27 02:52:33;;;;;;;0.10;0.10;;;;;;;13.75;100.00;99600.72;5134105;27;20730;-57
2023/09/27 02:55:20;;;;;;;0.10;0.10;;;;;;;13.70;100.00;99594.88;5118560;27;20291;-57
2023/09/27 02:58:07;;;;;;;0.10;0.10;;;;;;;13.70;100.00;99594.88;5117996;27;20192;-57
2023/09/27 03:00:54;;;;;;;0.10;0.10;;;;;;;13.51;100.00;99593.56;5118471;27;20193;-57
2023/09/27 03:03:42;;;;;;;0.10;0.10;;;;;;;13.33;100.00;99603.69;5134065;27;20255;-57
2023/09/27 03:06:29;;;;;;;0.10;0.10;;;;;;;13.30;100.00;99595.91;5118368;27;20197;-57
2023/09/27 03:09:16;;;;;;;0.20;0.20;;;;;;;13.28;100.00;99608.47;5117156;27;20197;-57
2023/09/27 03:12:04;;;;;;;0.10;0.10;;;;;;;13.09;100.00;99601.69;5118484;27;20197;-57
2023/09/27 03:14:50;;;;;;;0.10;0.10;;;;;;;13.33;100.00;99609.88;5118433;27;20185;-57
2023/09/27 03:17:38;;;;;;;0.10;0.10;;;;;;;12.97;100.00;99607.84;5118343;27;20201;-57
2023/09/27 03:20:27;;;;;;;0.10;0.10;;;;;;;13.11;100.00;99607.75;5118213;27;20192;-57
2023/09/27 03:23:14;;;;;;;0.10;0.10;;;;;;;12.96;100.00;99600.81;5116782;28;20221;-57
2023/09/27 03:26:01;;;;;;;0.10;0.10;;;;;;;13.27;100.00;99606.75;5118254;27;20201;-57
2023/09/27 03:28:48;;;;;;;0.10;0.10;;;;;;;13.39;100.00;99620.06;5118357;27;20672;-57
2023/09/27 03:31:37;;;;;;;0.10;0.10;;;;;;;12.98;100.00;99630.81;5133602;27;20246;-57
2023/09/27 03:34:25;;;;;;;0.10;0.10;;;;;;;12.80;100.00;99640.00;5117906;27;20212;-57
2023/09/27 03:37:14;;;;;;;0.10;0.10;;;;;;;12.55;100.00;99638.09;5133750;27;20199;-57
2023/09/27 03:40:03;;;;;;;0.10;0.10;;;;;;;12.77;100.00;99640.22;5116571;28;20185;-57
2023/09/27 03:42:49;;;;;;;0.10;0.10;;;;;;;12.90;100.00;99626.00;5133630;27;20208;-56
2023/09/27 03:45:36;;;;;;;0.10;0.10;;;;;;;12.80;100.00;99613.41;5133528;27;20193;-57
2023/09/27 03:48:26;;;;;;;0.10;0.10;;;;;;;12.65;100.00;99595.81;5117824;28;20762;-57
2023/09/27 03:51:13;;;;;;;0.10;0.10;;;;;;;12.73;100.00;99585.53;5133518;28;20197;-57
2023/09/27 03:54:01;;;;;;;0.10;0.10;;;;;;;12.56;100.00;99592.81;5116463;28;20210;-57
2023/09/27 03:56:48;;;;;;;0.10;0.10;;;;;;;12.73;100.00;99606.78;5117724;28;20387;-57
2023/09/27 03:59:35;;;;;;;0.10;0.10;;;;;;;12.68;100.00;99607.09;5117798;27;20197;-57
2023/09/27 04:02:22;;;;;;;0.10;0.10;;;;;;;12.75;100.00;99607.56;5133525;27;20185;-57
2023/09/27 04:05:10;;;;;;;0.10;0.10;;;;;;;12.75;0.00;129327.72;5117712;28;20185;-57
2023/09/27 04:07:57;;;;;;;0.10;0.10;;;;;;;12.62;100.00;99591.53;5116453;28;20239;-57
2023/09/27 04:10:47;;;;;;;0.10;0.10;;;;;;;12.55;100.00;99588.47;5136125;27;20231;-57
2023/09/27 04:13:33;;;;;;;0.10;0.10;;;;;;;12.55;100.00;99588.47;5136918;27;20209;-57
2023/09/27 04:16:20;;;;;;;0.10;0.10;;;;;;;12.58;100.00;99590.06;5137210;27;20185;-57
2023/09/27 04:19:09;;;;;;;0.10;0.10;;;;;;;-144.59;100.00;99590.06;5137218;27;20557;-57
2023/09/27 04:21:55;;;;;;;0.10;0.10;;;;;;;12.72;100.00;99594.44;5137030;27;20280;-57
2023/09/27 04:24:43;;;;;;;0.10;0.10;;;;;;;13.22;100.00;99598.22;5135213;27;20232;-57
2023/09/27 04:27:31;;;;;;;0.10;0.10;;;;;;;13.10;100.00;99587.44;5121546;27;20223;-57
2023/09/27 04:30:19;;;;;;;0.10;0.10;;;;;;;13.16;100.00;99586.19;5136681;27;20193;-56
2023/09/27 04:33:07;;;;;;;0.10;0.10;;;;;;;12.82;100.00;99587.56;5121184;27;20232;-57
2023/09/27 04:35:53;;;;;;;0.10;0.10;;;;;;;12.59;100.00;99589.09;5136871;27;20219;-57
2023/09/27 04:38:40;;;;;;;0.13;0.13;;;;;;;12.45;100.00;99589.13;5135300;27;20201;-57
2023/09/27 04:41:28;;;;;;;0.10;0.10;;;;;;;12.38;100.00;99601.97;5136756;27;20197;-57
2023/09/27 04:44:16;;;;;;;0.10;0.10;;;;;;;12.64;100.00;99602.91;5136575;27;20743;-57
2023/09/27 04:47:03;;;;;;;0.10;0.10;;;;;;;12.64;100.00;99589.63;5136542;27;20331;-57
2023/09/27 04:49:50;;;;;;;0.10;0.10;;;;;;;12.60;100.00;99590.78;5136415;27;20616;-57
2023/09/27 04:52:37;;;;;;;0.10;0.10;;;;;;;12.52;100.00;99585.97;5136587;27;20197;-57
2023/09/27 04:55:24;;;;;;;0.10;0.10;;;;;;;12.82;100.00;99582.25;5136112;27;20225;-57
2023/09/27 04:58:11;;;;;;;0.10;0.10;;;;;;;12.58;100.00;99587.41;5136369;27;20706;-57
2023/09/27 05:01:00;;;;;;;0.13;0.13;;;;;;;12.71;100.00;99590.09;5136171;27;20269;-57
2023/09/27 05:03:47;;;;;;;0.10;0.10;;;;;;;12.51;100.00;99584.28;5136092;27;20295;-57
2023/09/27 05:06:35;;;;;;;0.10;0.10;;;;;;;12.51;100.00;99573.66;5136228;27;20197;-57
2023/09/27 05:09:21;;;;;;;0.10;0.10;;;;;;;12.46;100.00;99574.91;5134762;27;20193;-57
2023/09/27 05:12:09;;;;;;;0.10;0.10;;;;;;;12.55;100.00;99591.13;5136012;27;20205;-57
2023/09/27 05:14:58;;;;;;;0.10;0.10;;;;;;;12.58;100.00;99596.22;5135726;27;20233;-57
2023/09/27 05:17:46;;;;;;;0.20;0.20;;;;;;;12.37;100.00;99599.41;5135799;27;20274;-57
2023/09/27 05:20:33;;;;;;;0.10;0.10;;;;;;;12.04;100.00;99605.91;5135825;27;20197;-57
2023/09/27 05:23:20;;;;;;;0.17;0.17;;;;;;;12.21;100.00;99613.66;5134289;27;20237;-57
2023/09/27 05:26:11;;;;;;;0.10;0.10;;;;;;;12.30;100.00;99621.06;5135775;27;20185;-57
2023/09/27 05:28:59;;;;;;;0.20;0.20;;;;;;;12.14;100.00;99622.09;5135662;27;20216;-57
2023/09/27 05:31:46;;;;;;;0.10;0.10;;;;;;;12.17;100.00;99621.94;5135686;27;20572;-57
2023/09/27 05:34:34;;;;;;;0.10;0.10;;;;;;;12.43;100.00;99618.44;5135554;27;20217;-57
2023/09/27 05:37:21;;;;;;;0.10;0.10;;;;;;;12.25;100.00;99620.47;5135103;27;20193;-57
2023/09/27 05:40:10;;;;;;;0.10;0.10;;;;;;;12.30;100.00;99606.91;5133880;27;20201;-56
2023/09/27 05:42:57;;;;;;;0.10;0.10;;;;;;;12.22;100.00;99611.84;5134978;27;20194;-57
2023/09/27 05:45:48;;;;;;;0.10;0.10;;;;;;;12.16;100.00;99629.06;5135437;27;20190;-57
2023/09/27 05:48:35;;;;;;;0.10;0.10;;;;;;;12.13;100.00;99620.41;5135272;27;20198;-57
2023/09/27 05:51:23;;;;;;;0.10;0.10;;;;;;;12.20;100.00;99616.44;5135260;27;20201;-57
2023/09/27 05:54:10;;;;;;;0.10;0.10;;;;;;;12.25;100.00;99615.16;5133944;27;20226;-57
2023/09/27 05:56:57;;;;;;;0.13;0.13;;;;;;;12.34;100.00;99627.00;5135217;27;20189;-57
2023/09/27 05:59:44;;;;;;;0.10;0.10;;;;;;;12.27;100.00;99631.88;5134479;27;20200;-57
2023/09/27 06:02:31;;;;;;;0.10;0.10;;;;;;;12.30;100.00;99625.50;5135075;27;20193;-57
2023/09/27 06:05:18;;;;;;;0.10;0.10;;;;;;;12.29;100.00;99629.97;5135229;27;20299;-57
2023/09/27 06:08:06;;;;;;;0.10;0.10;;;;;;;12.26;100.00;99637.28;5133570;27;20193;-56
2023/09/27 06:10:54;;;;;;;0.10;0.10;;;;;;;12.17;100.00;99630.75;5134620;27;20300;-57
2023/09/27 06:13:41;;;;;;;0.10;0.10;;;;;;;12.36;100.00;99622.47;5134894;27;20227;-57
2023/09/27 06:16:28;;;;;;;0.10;0.10;;;;;;;12.28;100.00;99622.09;5134759;27;20189;-57
2023/09/27 06:19:15;;;;;;;0.10;0.10;;;;;;;12.52;100.00;99627.63;5119074;27;20270;-57
2023/09/27 06:22:04;;;;;;;0.10;0.10;;;;;;;12.83;100.00;99629.16;5134450;27;20197;-57
2023/09/27 06:24:52;;;;;;;0.10;0.10;;;;;;;12.99;100.00;99621.88;5132769;27;20286;-57
2023/09/27 06:27:39;;;;;;;0.20;0.20;;;;;;;13.13;100.00;99607.66;5134608;27;20251;-57
2023/09/27 06:30:27;;;;;;;0.10;0.10;;;;;;;-144.59;0.00;117597.06;5134703;27;20192;-57
2023/09/27 06:33:14;;;;;;;0.10;0.10;;;;;;;12.90;100.00;99595.91;5133345;27;20197;-57
2023/09/27 06:36:00;;;;;;;0.10;0.10;;;;;;;12.66;100.00;99600.19;5133298;27;20221;-57
2023/09/27 06:38:47;;;;;;;0.10;0.10;;;;;;;12.92;100.00;99601.09;5132383;27;20189;-57
2023/09/27 06:41:35;;;;;;;0.10;0.10;;;;;;;13.05;100.00;99605.53;5134308;27;20679;-57
2023/09/27 06:44:27;;;;;;;0.10;0.10;;;;;;;13.32;100.00;99602.00;5118749;27;20193;-57
2023/09/27 06:47:14;;;;;;;0.10;0.10;;;;;;;13.28;100.00;99617.28;5134163;27;20676;-57
2023/09/27 06:50:01;;;;;;;0.10;0.10;;;;;;;13.41;100.00;99607.53;5134076;27;20213;-57
2023/09/27 06:52:48;;;;;;;0.10;0.10;;;;;;;13.79;100.00;99614.66;5133001;27;20197;-57
2023/09/27 06:55:39;;;;;;;0.10;0.10;;;;;;;13.85;100.00;99605.41;5133936;27;20216;-57
2023/09/27 06:58:27;;;;;;;0.10;0.10;;;;;;;13.90;100.00;99605.94;5133923;27;20197;-57
2023/09/27 07:01:14;;;;;;;0.10;0.10;;;;;;;14.27;100.00;99602.31;5133304;27;20270;-57
2023/09/27 07:04:03;;;;;;;0.00;0.00;;;;;;;14.24;100.00;99604.38;5118587;27;20196;-57
2023/09/27 07:06:50;;;;;;;0.10;0.10;;;;;;;14.37;100.00;99601.66;5133884;27;20300;-57
2023/09/27 07:09:37;;;;;;;0.10;0.10;;;;;;;14.32;100.00;99610.84;5131562;27;20190;-57
2023/09/27 07:12:24;;;;;;;0.10;0.10;;;;;;;14.60;100.00;99614.22;5133029;27;20224;-57
2023/09/27 07:15:13;;;;;;;0.10;0.10;;;;;;;14.74;100.00;99605.19;5133636;27;20212;-57
2023/09/27 07:18:00;;;;;;;0.13;0.13;;;;;;;14.93;100.00;99613.53;5133889;27;20211;-57
2023/09/27 07:20:50;;;;;;;0.10;0.10;;;;;;;15.18;100.00;99602.72;5133873;27;20259;-57
2023/09/27 07:23:37;;;;;;;0.10;0.10;;;;;;;15.48;100.00;99595.16;5132300;27;20269;-57
2023/09/27 07:26:23;;;;;;;0.10;0.10;;;;;;;15.70;100.00;99597.88;5133713;27;20254;-57
2023/09/27 07:29:11;;;;;;;0.10;0.10;;;;;;;15.99;100.00;99611.63;5133692;27;20691;-57
2023/09/27 07:32:00;;;;;;;0.10;0.10;;;;;;;16.07;100.00;99597.66;5133805;27;20194;-57
2023/09/27 07:34:47;;;;;;;0.10;0.10;;;;;;;16.09;100.00;99595.69;5133598;27;20242;-57
2023/09/27 07:37:35;;;;;;;0.20;0.20;;;;;;;16.26;100.00;99587.19;5133288;27;20193;-57
2023/09/27 07:40:23;;;;;;;0.10;0.10;;;;;;;16.59;100.00;99570.22;5133525;27;20193;-57
2023/09/27 07:43:10;;;;;;;0.10;0.10;;;;;;;16.95;100.00;99563.66;5133563;27;20695;-57
2023/09/27 07:45:59;;;;;;;0.10;0.10;;;;;;;17.08;100.00;99553.66;5136948;27;20267;-57
2023/09/27 07:48:47;;;;;;;0.10;0.10;;;;;;;17.50;100.00;99555.47;5137681;27;20307;-58
2023/09/27 07:51:35;;;;;;;0.10;0.10;;;;;;;17.67;100.00;99560.22;5137670;27;20323;-58
2023/09/27 07:54:23;;;;;;;0.10;0.10;;;;;;;17.93;100.00;99568.66;5136549;27;20284;-58
2023/09/27 07:57:11;;;;;;;0.10;0.10;;;;;;;18.02;100.00;99584.78;5137515;27;20223;-58
2023/09/27 07:59:58;;;;;;;0.10;0.10;;;;;;;18.43;100.00;99572.22;5137515;27;20193;-57
2023/09/27 08:02:45;;;;;;;0.10;0.10;;;;;;;18.81;100.00;99567.91;5137591;27;20660;-57
2023/09/27 08:05:42;;;;;;;0.10;0.10;;;;;;;18.91;100.00;99567.91;5137454;27;20190;-58
2023/09/27 08:08:29;;;;;;;0.10;0.10;;;;;;;19.25;100.00;99563.81;5136120;27;20235;-57
2023/09/27 08:11:16;;;;;;;0.10;0.10;;;;;;;19.69;100.00;99567.72;5136661;27;20242;-57
2023/09/27 08:14:03;;;;;;;0.10;0.10;;;;;;;19.60;100.00;99568.59;5137108;27;20300;-57
2023/09/27 08:16:51;;;;;;;0.10;0.10;;;;;;;19.64;100.00;99566.44;5136603;27;20269;-57
2023/09/27 08:19:39;;;;;;;0.10;0.10;;;;;;;20.37;100.00;99559.34;5121188;27;20198;-57
2023/09/27 08:22:27;;;;;;;0.10;0.10;;;;;;;20.67;100.00;99566.25;5137138;27;20213;-57
2023/09/27 08:25:15;;;;;;;0.10;0.10;;;;;;;20.63;100.00;99572.06;5136804;27;20334;-57
2023/09/27 08:28:03;;;;;;;0.10;0.10;;;;;;;20.10;100.00;99580.84;5136828;27;20227;-57
2023/09/27 08:30:50;;;;;;;0.10;0.10;;;;;;;19.82;100.00;99593.41;5137051;27;20209;-57
2023/09/27 08:33:37;;;;;;;0.10;0.10;;;;;;;19.64;100.00;99593.31;5137141;27;20189;-57
2023/09/27 08:36:24;;;;;;;0.10;0.10;;;;;;;19.30;100.00;99590.22;5136743;27;20214;-57
2023/09/27 08:39:14;;;;;;;0.10;0.10;;;;;;;19.67;100.00;99585.81;5135505;27;20737;-57
2023/09/27 08:42:03;;;;;;;0.10;0.10;;;;;;;20.01;100.00;99583.44;5120959;27;20193;-57
2023/09/27 08:44:53;;;;;;;0.10;0.10;;;;;;;20.14;100.00;99577.72;5135542;27;20255;-57
2023/09/27 08:47:42;;;;;;;0.10;0.10;;;;;;;20.17;100.00;99577.44;5121264;27;20213;-58
2023/09/27 08:50:29;;;;;;;0.10;0.10;;;;;;;20.19;100.00;99567.38;5136702;27;20193;-57
2023/09/27 08:53:16;;;;;;;0.10;0.10;;;;;;;20.56;100.00;99571.84;5135279;27;20238;-57
2023/09/27 08:56:06;;;;;;;0.10;0.10;;;;;;;20.88;100.00;99565.09;5135520;27;20209;-57
2023/09/27 08:58:53;;;;;;;0.10;0.10;;;;;;;20.89;100.00;99564.09;5135793;27;20227;-57
2023/09/27 09:01:44;;;;;;;0.10;0.10;;;;;;;21.29;100.00;99560.94;5135838;27;20193;-57
2023/09/27 09:04:31;;;;;;;0.10;0.10;;;;;;;20.93;100.00;99552.84;5136050;27;20308;-57
2023/09/27 09:07:18;;;;;;;0.10;0.10;;;;;;;20.74;100.00;99544.94;5134867;27;20266;-57
2023/09/27 09:10:05;;;;;;;0.10;0.10;;;;;;;21.47;100.00;99542.03;5135133;27;20263;-58
2023/09/27 09:12:54;;;;;;;0.10;0.10;;;;;;;21.47;100.00;99542.03;5135272;27;20196;-58
2023/09/27 09:15:41;;;;;;;0.10;0.10;;;;;;;21.80;100.00;99532.28;5135925;27;20201;-58
2023/09/27 09:18:32;;;;;;;0.10;0.10;;;;;;;22.60;100.00;99521.97;5134543;27;20220;-58
2023/09/27 09:21:20;;;;;;;0.10;0.10;;;;;;;22.77;100.00;99518.25;5134276;27;20228;-58
2023/09/27 09:24:20;;;;;;;0.10;0.10;;;;;;;22.86;100.00;99517.28;5133897;27;20282;-58
2023/09/27 09:27:09;;;;;;;0.10;0.10;;;;;;;23.52;100.00;99515.38;5135217;27;20213;-58
2023/09/27 09:30:00;;;;;;;0.10;0.10;;;;;;;23.94;100.00;99510.56;5133858;27;20194;-58
2023/09/27 09:32:50;;;;;;;0.10;0.10;;;;;;;24.71;100.00;99512.56;5133392;27;20210;-57
2023/09/27 09:35:38;;;;;;;0.10;0.10;;;;;;;24.82;100.00;99522.97;5134308;27;20200;-58
2023/09/27 09:38:26;;;;;;;0.10;0.10;;;;;;;24.97;100.00;99531.97;5131671;27;20217;-57
2023/09/27 09:41:13;;;;;;;0.00;0.00;;;;;;;25.18;98.57;99520.47;5119193;27;20303;-58
2023/09/27 09:44:16;;;;;;;0.10;0.10;;;;;;;25.95;91.11;99528.34;5134596;27;20201;-57
2023/09/27 09:47:12;;;;;;;0.10;0.10;;;;;;;26.77;86.48;99528.13;5135001;27;20254;-57
2023/09/27 09:50:00;;;;;;;0.10;0.10;;;;;;;26.41;86.40;99531.69;5135372;27;20192;-57
2023/09/27 09:52:54;;;;;;;0.10;0.10;;;;;;;27.52;81.57;99533.00;5133858;27;20713;-58
2023/09/27 09:55:43;;;;;;;0.10;0.10;;;;;;;28.15;73.52;99524.81;5135024;27;20189;-57
2023/09/27 09:58:57;;;;;;;0.00;0.00;;;;;;;30.01;59.96;99529.44;5134559;27;20186;-57
2023/09/27 10:01:45;;;;;;;0.10;0.10;;;;;;;29.69;58.62;99527.63;5133437;27;20193;-57
2023/09/27 10:04:33;;;;;;;0.10;0.10;;;;;;;30.77;53.98;99529.56;5133939;27;20197;-58
2023/09/27 10:07:23;;;;;;;0.10;0.10;;;;;;;32.33;49.47;99530.50;5134799;27;20210;-58
2023/09/27 10:10:11;;;;;;;0.00;0.00;;;;;;;33.54;45.56;99523.84;5134430;27;20181;-58
2023/09/27 10:12:59;;;;;;;0.00;0.00;;;;;;;35.34;42.28;99522.56;5134897;27;20185;-56
2023/09/27 10:15:46;;;;;;;0.00;0.00;;;;;;;33.91;43.61;99534.63;5135121;27;20189;-56
2023/09/27 10:18:37;;;;;;;0.00;0.00;;;;;;;32.62;46.18;99526.09;5134803;27;20208;-56
2023/09/27 10:21:25;;;;;;;0.00;0.00;;;;;;;32.33;47.49;99530.50;5134138;27;20194;-56
2023/09/27 10:24:12;;;;;;;0.00;0.00;;;;;;;31.77;48.58;99529.66;5131950;27;20217;-56
2023/09/27 10:26:59;;;;;;;0.03;0.03;;;;;;;31.02;50.50;99517.84;5134442;27;20194;-56
2023/09/27 10:29:56;;;;;;;0.00;0.00;;;;;;;29.75;56.12;99513.97;5134813;27;20360;-56
2023/09/27 10:32:43;;;;;;;0.00;0.00;;;;;;;29.06;59.98;99518.00;5134136;27;20209;-56
2023/09/27 10:35:32;;;;;;;0.00;0.00;;;;;;;29.27;58.88;99519.66;5134561;27;20226;-56
2023/09/27 10:38:21;;;;;;;0.10;0.10;;;;;;;29.93;55.61;99508.66;5132554;27;20213;-56
2023/09/27 10:41:07;;;;;;;0.00;0.00;;;;;;;30.31;53.16;99498.88;5134255;27;20201;-56
2023/09/27 10:43:54;;;;;;;0.00;0.00;;;;;;;30.79;52.47;99507.47;5134353;27;20204;-56
2023/09/27 10:46:42;;;;;;;0.00;0.00;;;;;;;32.68;46.90;99506.81;5134454;27;20255;-56
2023/09/27 10:49:37;;;;;;;0.10;0.10;;;;;;;32.93;43.76;99508.59;5134309;27;20196;-56
2023/09/27 10:52:26;;;;;;;0.00;0.00;;;;;;;31.99;46.22;99510.84;5134325;27;20192;-56
2023/09/27 10:55:15;;;;;;;0.00;0.00;;;;;;;33.04;44.67;99502.28;5134256;27;20201;-56
2023/09/27 10:58:02;;;;;;;0.00;0.00;;;;;;;32.60;45.48;99489.81;5133999;27;20221;-56
2023/09/27 11:00:54;;;;;;;0.00;0.00;;;;;;;32.54;46.43;99490.78;5134283;27;20243;-57
2023/09/27 11:03:41;;;;;;;0.00;0.00;;;;;;;34.76;41.06;99490.72;5134165;27;20209;-57
2023/09/27 11:06:29;;;;;;;0.00;0.00;;;;;;;35.62;38.67;99483.06;5133994;27;20208;-57
2023/09/27 11:09:19;;;;;;;0.00;0.00;;;;;;;36.76;36.93;99481.44;5132555;27;20197;-57
2023/09/27 11:12:07;;;;;;;0.00;0.00;;;;;;;37.13;36.02;99468.53;5133979;27;20194;-57
2023/09/27 11:14:56;;;;;;;0.00;0.00;;;;;;;38.42;33.99;99471.78;5133341;27;20406;-57
2023/09/27 11:17:42;;;;;;;0.00;0.00;;;;;;;39.86;31.84;99477.06;5133177;27;20368;-57
2023/09/27 11:20:29;;;;;;;0.00;0.00;;;;;;;39.43;32.20;99461.88;5117367;27;20716;-57
2023/09/27 11:23:19;;;;;;;0.00;0.00;;;;;;;37.39;34.63;99460.47;5132173;27;20351;-57
2023/09/27 11:26:06;;;;;;;0.00;0.00;;;;;;;38.20;33.30;99460.06;5133681;28;20201;-57
2023/09/27 11:29:02;;;;;;;0.00;0.00;;;;;;;40.04;31.23;99450.63;5133305;28;20197;-57
2023/09/27 11:31:56;;;;;;;0.00;0.00;;;;;;;36.83;34.06;99455.31;5133980;27;20201;-57
2023/09/27 11:34:42;;;;;;;0.00;0.00;;;;;;;36.83;34.86;99452.53;5118371;28;20221;-57
2023/09/27 11:37:29;;;;;;;0.00;0.00;;;;;;;36.69;34.04;99440.25;5133627;28;20400;-57
2023/09/27 11:40:16;;;;;;;0.00;0.00;;;;;;;37.18;34.79;99432.66;5133621;28;20198;-57
2023/09/27 11:43:03;;;;;;;0.00;0.00;;;;;;;37.87;34.06;99433.66;5133713;28;20201;-57
2023/09/27 11:45:52;;;;;;;0.00;0.00;;;;;;;38.31;33.41;99423.03;5133716;28;20204;-56
2023/09/27 11:48:40;;;;;;;0.00;0.00;;;;;;;38.59;32.31;99425.28;5133788;28;20189;-57
2023/09/27 11:51:26;;;;;;;0.00;0.00;;;;;;;38.06;33.17;99427.38;5133652;28;20220;-57
2023/09/27 11:54:13;;;;;;;0.00;0.00;;;;;;;34.88;37.20;99408.91;5132197;28;20377;-56
2023/09/27 11:57:00;;;;;;;0.00;0.00;;;;;;;36.49;35.09;99402.25;5133541;28;20216;-57
2023/09/27 11:59:47;;;;;;;0.00;0.00;;;;;;;38.31;32.35;99401.69;5133131;28;20316;-56
2023/09/27 12:02:36;;;;;;;0.00;0.00;;;;;;;38.50;31.76;99399.25;5133641;28;20201;-56
2023/09/27 12:05:41;;;;;;;0.00;0.00;;;;;;;40.17;29.89;99390.91;5133443;28;20232;-57
2023/09/27 12:08:29;;;;;;;0.00;0.00;;;;;;;41.80;28.14;99386.69;5132218;28;20185;-57
2023/09/27 12:11:15;;;;;;;0.00;0.00;;;;;;;40.89;27.98;99378.16;5133255;27;20205;-57
2023/09/27 12:14:02;;;;;;;0.00;0.00;;;;;;;40.06;29.25;99370.72;5133595;28;20197;-57
2023/09/27 12:16:49;;;;;;;0.00;0.00;;;;;;;40.11;28.91;99356.78;5133545;28;20279;-57
2023/09/27 12:19:38;;;;;;;0.00;0.00;;;;;;;39.91;29.33;99357.72;5133350;28;20316;-57
2023/09/27 12:22:25;;;;;;;0.00;0.00;;;;;;;38.03;31.38;99352.38;5133481;28;20189;-56
2023/09/27 12:25:12;;;;;;;0.00;0.00;;;;;;;39.57;30.21;99345.66;5112638;28;20304;-57
2023/09/27 12:27:59;;;;;;;0.00;0.00;;;;;;;40.77;29.07;99336.03;5112603;28;20199;-57
2023/09/27 12:30:45;;;;;;;0.00;0.00;;;;;;;41.12;28.34;99338.47;5112722;28;20349;-57
2023/09/27 12:33:33;;;;;;;0.00;0.00;;;;;;;42.00;26.67;99344.63;5116485;28;20637;-57
2023/09/27 12:36:21;;;;;;;0.00;0.00;;;;;;;41.79;26.92;99332.97;5116155;28;20313;-57
2023/09/27 12:39:08;;;;;;;0.00;0.00;;;;;;;41.56;27.70;99326.28;5114652;28;20218;-57
2023/09/27 12:41:58;;;;;;;0.00;0.00;;;;;;;40.85;28.00;99330.69;5116266;28;20193;-57
2023/09/27 12:44:45;;;;;;;0.00;0.00;;;;;;;40.20;28.40;99326.47;5116023;28;20197;-57
2023/09/27 12:47:32;;;;;;;0.00;0.00;;;;;;;41.42;27.60;99319.78;5115216;28;20296;-57
2023/09/27 12:50:23;;;;;;;0.00;0.00;;;;;;;41.97;27.17;99322.94;5116055;28;20209;-57
2023/09/27 12:53:12;;;;;;;0.00;0.00;;;;;;;41.22;27.16;99317.25;5114635;28;20193;-57
2023/09/27 12:55:59;;;;;;;0.00;0.00;;;;;;;39.31;28.14;99309.72;5115994;28;20194;-57
2023/09/27 12:58:46;;;;;;;0.00;0.00;;;;;;;40.96;27.03;99305.56;5115684;28;20260;-57
2023/09/27 13:01:33;;;;;;;0.00;0.00;;;;;;;41.27;27.57;99304.09;5115886;28;20189;-57
2023/09/27 13:04:19;;;;;;;0.00;0.00;;;;;;;42.10;26.12;99301.91;5115721;28;20244;-57